EuroAirport Basel-Mulhouse-Freiburg Airport

LFSB · Basel-Stadt, Frankreich

7. Oktober 2022

Uhrzeit Code Wetter Temp. Sichtweite Wolkendecke Wind METAR/SPECI
17:00
V
22 °C 10 km+ - Var 000° 0 kt METAR LFSB 071500Z AUTO 00000KT 9999 FEW044 22/14 Q1021 NOSIG
16:30
V
22 °C 10 km+ - Var Var 2 kt METAR LFSB 071430Z AUTO VRB02KT 9999 FEW041 22/13 Q1021 NOSIG
16:00
V
22 °C 10 km+ - 140° 140° 4 kt METAR LFSB 071400Z AUTO 14004KT 100V190 9999 FEW040 22/13 Q1022 NOSIG
15:30
V
21 °C 10 km+ - 090° 090° 5 kt METAR LFSB 071330Z AUTO 09005KT 030V130 9999 FEW044 21/13 Q1022 NOSIG
15:00
V
22 °C 10 km+ - Var Var 2 kt METAR LFSB 071300Z AUTO VRB02KT 9999 FEW036 22/14 Q1022 NOSIG
14:30
V
22 °C 10 km+ - 140° 140° 3 kt METAR LFSB 071230Z AUTO 14003KT 100V190 9999 SCT035 22/13 Q1023 NOSIG
14:00
V
21 °C 10 km+ - 140° 140° 3 kt METAR LFSB 071200Z AUTO 14003KT 120V190 9999 FEW033 21/13 Q1023 NOSIG
13:30
V
20 °C 10 km+ - 140° 140° 3 kt METAR LFSB 071130Z AUTO 14003KT 070V190 CAVOK 20/13 Q1024 NOSIG
13:00
V
20 °C 10 km+ - Var Var 2 kt METAR LFSB 071100Z AUTO VRB02KT CAVOK 20/13 Q1024 NOSIG
12:30
V
20 °C 10 km+ - Var Var 2 kt METAR LFSB 071030Z AUTO VRB02KT CAVOK 20/12 Q1025 NOSIG
12:00
V
19 °C 10 km+ - 150° 150° 5 kt METAR LFSB 071000Z AUTO 15005KT 090V180 CAVOK 19/13 Q1025 NOSIG
11:30
V
18 °C 10 km+ - 130° 130° 5 kt METAR LFSB 070930Z AUTO 13005KT CAVOK 18/13 Q1025 NOSIG
11:00
V
18 °C 10 km+ - Var Var 3 kt METAR LFSB 070900Z AUTO VRB03KT CAVOK 18/12 Q1025 NOSIG
10:30
V
17 °C 10 km+ - Var Var 2 kt METAR LFSB 070830Z AUTO VRB02KT CAVOK 17/12 Q1026 NOSIG
10:00
V
15 °C 10 km+ - Var 000° 0 kt METAR LFSB 070800Z AUTO 00000KT CAVOK 15/11 Q1026 NOSIG
09:30
V
14 °C 10 km+ - Var 000° 0 kt METAR LFSB 070730Z AUTO 00000KT CAVOK 14/11 Q1026 NOSIG
09:00
V
12 °C 10 km+ - Var 000° 0 kt METAR LFSB 070700Z AUTO 00000KT CAVOK 12/10 Q1026 NOSIG
08:30
M
11 °C 10 km+ 2.700 ft 240° 240° 3 kt METAR LFSB 070630Z AUTO 24003KT 9999 BKN027 11/10 Q1026 NOSIG
08:00
M
11 °C 10 km+ 2.600 ft 260° 260° 2 kt METAR LFSB 070600Z AUTO 26002KT 9999 OVC026 11/10 Q1026 NOSIG
07:30
M
12 °C 10 km+ 2.600 ft 270° 270° 2 kt METAR LFSB 070530Z AUTO 27002KT 9999 OVC026 12/11 Q1026 NOSIG
07:00
M
12 °C 10 km+ 2.700 ft Var 000° 0 kt METAR LFSB 070500Z AUTO 00000KT 9999 OVC027 12/11 Q1026 TEMPO 3000 BCFG
06:30
M
12 °C 10 km+ 2.800 ft Var 000° 0 kt METAR LFSB 070430Z AUTO 00000KT 9999 OVC028 12/10 Q1027 TEMPO 3000 BCFG
06:00
M
12 °C 10 km+ 2.900 ft 240° 240° 1 kt METAR LFSB 070400Z AUTO 24001KT 9999 OVC029 12/10 Q1027 TEMPO 3000 BCFG
05:30
V
12 °C 10 km+ 3.200 ft Var 000° 0 kt METAR LFSB 070330Z AUTO 00000KT 9999 FEW025 OVC032 12/10 Q1027 TEMPO 3000 BCFG
05:00
M
12 °C 10 km+ 2.500 ft Var 000° 0 kt METAR LFSB 070300Z AUTO 00000KT 9999 BKN025 OVC033 12/10 Q1027 TEMPO 3000 BCFG
04:30
M
11 °C 10 km+ 2.500 ft 230° 230° 2 kt METAR LFSB 070230Z AUTO 23002KT 9999 OVC025 11/10 Q1027 TEMPO 3000 BCFG
04:00
M
11 °C 10 km+ 2.500 ft 240° 240° 2 kt METAR LFSB 070200Z AUTO 24002KT 9999 OVC025 11/10 Q1028 TEMPO 3000 BCFG
03:30
M
11 °C 10 km+ 2.600 ft 250° 250° 4 kt METAR LFSB 070130Z AUTO 25004KT 9999 OVC026 11/10 Q1028 TEMPO 3000 BCFG
03:00
M
11 °C 10 km+ 2.700 ft 260° 260° 3 kt METAR LFSB 070100Z AUTO 26003KT 9999 BKN027 OVC042 11/10 Q1028 TEMPO 3000 BCFG
02:30
V
12 °C 10 km+ 4.300 ft 260° 260° 2 kt METAR LFSB 070030Z AUTO 26002KT 9999 FEW028 BKN043 12/09 Q1028 TEMPO 3000 BCFG
02:00
V
12 °C 10 km+ 4.400 ft 330° 330° 4 kt METAR LFSB 070000Z AUTO 33004KT 9999 BKN044 12/10 Q1028 NOSIG
01:30
V
13 °C 10 km+ 4.300 ft 310° 310° 3 kt METAR LFSB 062330Z AUTO 31003KT 9999 OVC043 13/10 Q1029 NOSIG
01:00
V
13 °C 10 km+ 4.300 ft 300° 300° 4 kt METAR LFSB 062300Z AUTO 30004KT 9999 SCT032 OVC043 13/11 Q1029 NOSIG
00:30
V
13 °C 10 km+ 3.300 ft 320° 320° 4 kt METAR LFSB 062230Z AUTO 32004KT 9999 BKN033 OVC044 13/11 Q1029 NOSIG
00:00
V
14 °C 10 km+ 4.300 ft 320° 320° 5 kt METAR LFSB 062200Z AUTO 32005KT 9999 SCT035 OVC043 14/11 Q1029 NOSIG

6. Oktober 2022

Uhrzeit Code Wetter Temp. Sichtweite Wolkendecke Wind METAR/SPECI
23:30
V
13 °C 10 km+ 3.800 ft 300° 300° 4 kt METAR LFSB 062130Z AUTO 30004KT 9999 OVC038 13/11 Q1029 NOSIG
23:00
V
13 °C 10 km+ 3.800 ft Var Var 3 kt METAR LFSB 062100Z AUTO VRB03KT 9999 OVC038 13/11 Q1029 NOSIG
22:30
V
13 °C 10 km+ 4.100 ft 340° 340° 4 kt METAR LFSB 062030Z AUTO 34004KT 9999 OVC041 13/11 Q1030 NOSIG
22:00
V
13 °C 10 km+ 4.200 ft 320° 320° 4 kt METAR LFSB 062000Z AUTO 32004KT 300V360 9999 BKN042 13/10 Q1030 NOSIG
21:30
V
13 °C 10 km+ - 300° 300° 6 kt METAR LFSB 061930Z AUTO 30006KT 9999 SCT043 13/11 Q1030 NOSIG
21:00
V
13 °C 10 km+ - 290° 290° 6 kt METAR LFSB 061900Z AUTO 29006KT 9999 FEW043 13/11 Q1030 NOSIG
20:30
V
14 °C 10 km+ - 310° 310° 6 kt METAR LFSB 061830Z AUTO 31006KT 9999 FEW044 14/11 Q1030 NOSIG
20:00
V
14 °C 10 km+ - 330° 330° 6 kt METAR LFSB 061800Z AUTO 33006KT 9999 FEW045 14/11 Q1030 NOSIG
19:30
V
15 °C 10 km+ - 330° 330° 6 kt METAR LFSB 061730Z AUTO 33006KT CAVOK 15/11 Q1030 NOSIG
19:00
V
15 °C 10 km+ - 340° 340° 7 kt METAR LFSB 061700Z AUTO 34007KT 300V360 CAVOK 15/11 Q1029 NOSIG
18:30
V
17 °C 10 km+ - 350° 350° 8 kt METAR LFSB 061630Z AUTO 35008KT 330V040 CAVOK 17/12 Q1029 NOSIG
18:00
V
17 °C 10 km+ - 350° 350° 10 kt METAR LFSB 061600Z AUTO 35010KT CAVOK 17/12 Q1029 NOSIG
17:30
V
18 °C 10 km+ - 360° 360° 9 kt METAR LFSB 061530Z AUTO 36009KT CAVOK 18/12 Q1029 NOSIG
17:00
V
19 °C 10 km+ - 360° 360° 9 kt METAR LFSB 061500Z AUTO 36009KT CAVOK 19/12 Q1029 NOSIG
16:30
V
20 °C 10 km+ - 360° 360° 7 kt METAR LFSB 061430Z AUTO 36007KT 340V040 CAVOK 20/12 Q1030 NOSIG
16:00
V
20 °C 10 km+ - 020° 020° 7 kt METAR LFSB 061400Z AUTO 02007KT 350V060 CAVOK 20/12 Q1030 NOSIG
15:30
V
20 °C 10 km+ - 010° 010° 8 kt METAR LFSB 061330Z AUTO 01008KT 340V040 9999 FEW042 20/12 Q1030 NOSIG
15:00
V
20 °C 10 km+ - 010° 010° 6 kt METAR LFSB 061300Z AUTO 01006KT 330V060 9999 FEW003 SCT039 20/12 Q1030 NOSIG
14:30
V
19 °C 10 km+ - 020° 020° 7 kt METAR LFSB 061230Z AUTO 02007KT 350V050 9999 FEW040 19/11 Q1030 NOSIG
14:00
V
19 °C 10 km+ - 360° 360° 6 kt METAR LFSB 061200Z AUTO 36006KT 330V030 9999 FEW042 19/11 Q1031 NOSIG
13:30
V
18 °C 10 km+ 5.200 ft 360° 360° 6 kt METAR LFSB 061130Z AUTO 36006KT 320V030 9999 BKN052 18/11 Q1031 NOSIG
13:00
V
18 °C 10 km+ 5.200 ft 010° 010° 3 kt METAR LFSB 061100Z AUTO 01003KT 330V070 9999 FEW031 OVC052 18/12 Q1031 NOSIG
12:30
V
17 °C 10 km+ 4.500 ft 340° 340° 5 kt METAR LFSB 061030Z AUTO 34005KT 310V020 9999 FEW015 BKN045 OVC054 17/13 Q1031 NOSIG
12:00
V
16 °C 10 km+ 4.200 ft 360° 360° 4 kt METAR LFSB 061000Z AUTO 36004KT 320V050 9999 FEW015 BKN042 OVC048 16/13 Q1031 NOSIG
11:30
V
16 °C 10 km+ 4.300 ft Var Var 1 kt METAR LFSB 060930Z AUTO VRB01KT 9999 SCT032 OVC043 16/12 Q1031 NOSIG
11:00
V
15 °C 10 km+ 3.200 ft Var Var 2 kt METAR LFSB 060900Z AUTO VRB02KT 9999 BKN032 OVC040 15/12 Q1031 NOSIG
10:30
V
14 °C 10 km+ 3.200 ft Var Var 1 kt METAR LFSB 060830Z AUTO VRB01KT 9999 OVC032 14/11 Q1031 NOSIG
10:00
V
13 °C 10 km+ 3.100 ft Var Var 2 kt METAR LFSB 060800Z AUTO VRB02KT 9999 OVC031 13/11 Q1031 NOSIG
09:30
V
13 °C 10 km+ 3.000 ft 160° 160° 5 kt METAR LFSB 060730Z AUTO 16005KT 9999 BKN030 OVC064 13/11 Q1030 NOSIG
09:00
V
12 °C 10 km+ - 140° 140° 4 kt METAR LFSB 060700Z AUTO 14004KT 100V170 CAVOK 12/11 Q1030 NOSIG
08:30
V
12 °C 10 km+ 5.600 ft 150° 150° 3 kt METAR LFSB 060630Z AUTO 15003KT 9999 BKN056 BKN066 12/10 Q1030 NOSIG
08:00
V
11 °C 10 km+ 11.000 ft 140° 140° 6 kt METAR LFSB 060600Z AUTO 14006KT 9999 SCT054 BKN110 11/10 Q1030 NOSIG
07:30
V
11 °C 10 km+ 11.000 ft 170° 170° 8 kt METAR LFSB 060530Z AUTO 17008KT 9999 FEW045 SCT056 BKN110 11/09 Q1029 NOSIG
07:00
V
11 °C 10 km+ 5.600 ft 160° 160° 6 kt METAR LFSB 060500Z AUTO 16006KT 9999 FEW045 BKN056 BKN068 11/10 Q1029 NOSIG
06:30
V
11 °C 10 km+ - 170° 170° 5 kt METAR LFSB 060430Z AUTO 17005KT CAVOK 11/09 Q1029 NOSIG
06:00
V
10 °C 10 km+ - 180° 180° 5 kt METAR LFSB 060400Z AUTO 18005KT CAVOK 10/09 Q1029 TEMPO 4000 MIFG
05:30
V
10 °C 10 km+ - 170° 170° 5 kt METAR LFSB 060330Z AUTO 17005KT CAVOK 10/09 Q1028 TEMPO 4000 MIFG
05:00
V
10 °C 10 km+ - 180° 180° 4 kt METAR LFSB 060300Z AUTO 18004KT 160V230 CAVOK 10/10 Q1028 TEMPO 4000 MIFG
04:30
V
10 °C 10 km+ - 110° 110° 2 kt METAR LFSB 060230Z AUTO 11002KT CAVOK 10/10 Q1028 TEMPO 4000 MIFG
04:00
V
10 °C 10 km+ - 160° 160° 4 kt METAR LFSB 060200Z AUTO 16004KT CAVOK 10/10 Q1028 TEMPO 4000 MIFG
03:30
V
9 °C 10 km+ - Var Var 2 kt METAR LFSB 060130Z AUTO VRB02KT CAVOK 09/09 Q1027 TEMPO 4000 MIFG
03:00
V
10 °C 10 km+ - 170° 170° 3 kt METAR LFSB 060100Z AUTO 17003KT CAVOK 10/09 Q1027 TEMPO 4000 MIFG
02:30
V
10 °C 10 km+ - Var Var 1 kt METAR LFSB 060030Z AUTO VRB01KT CAVOK 10/09 Q1027 TEMPO 4000 MIFG
02:00
V
10 °C 10 km+ - Var 000° 0 kt METAR LFSB 060000Z AUTO 00000KT CAVOK 10/09 Q1027 TEMPO 4000 MIFG
01:30
V
10 °C 10 km+ - Var Var 3 kt METAR LFSB 052330Z AUTO VRB03KT CAVOK 10/09 Q1026 TEMPO 4000 MIFG
01:00
V
10 °C 10 km+ - Var Var 2 kt METAR LFSB 052300Z AUTO VRB02KT CAVOK 10/09 Q1026 NOSIG
00:30
V
11 °C 10 km+ - 170° 170° 3 kt METAR LFSB 052230Z AUTO 17003KT CAVOK 11/10 Q1026 NOSIG
00:00
V
11 °C 10 km+ - 200° 200° 3 kt METAR LFSB 052200Z AUTO 20003KT 170V240 CAVOK 11/09 Q1026 NOSIG

5. Oktober 2022

Uhrzeit Code Wetter Temp. Sichtweite Wolkendecke Wind METAR/SPECI
23:30
V
12 °C 10 km+ - Var Var 2 kt METAR LFSB 052130Z AUTO VRB02KT CAVOK 12/10 Q1026 NOSIG
23:00
V
12 °C 10 km+ - 180° 180° 3 kt METAR LFSB 052100Z AUTO 18003KT 150V220 CAVOK 12/11 Q1025 NOSIG
22:30
V
12 °C 10 km+ - 170° 170° 4 kt METAR LFSB 052030Z AUTO 17004KT 140V210 CAVOK 12/11 Q1025 NOSIG
22:00
V
13 °C 10 km+ - Var Var 2 kt METAR LFSB 052000Z AUTO VRB02KT CAVOK 13/11 Q1025 NOSIG
21:30
V
13 °C 10 km+ - 160° 160° 3 kt METAR LFSB 051930Z AUTO 16003KT 120V180 CAVOK 13/11 Q1024 NOSIG
21:00
V
15 °C 10 km+ - 150° 150° 3 kt METAR LFSB 051900Z AUTO 15003KT 110V180 CAVOK 15/14 Q1024 NOSIG
20:30
V
16 °C 10 km+ - Var Var 3 kt METAR LFSB 051830Z AUTO VRB03KT CAVOK 16/14 Q1023 NOSIG
20:00
V
15 °C 10 km+ - Var Var 3 kt METAR LFSB 051800Z AUTO VRB03KT CAVOK 15/12 Q1023 NOSIG
19:30
V
17 °C 10 km+ - Var Var 3 kt METAR LFSB 051730Z AUTO VRB03KT CAVOK 17/14 Q1023 NOSIG
19:00
V
20 °C 10 km+ - 320° 320° 1 kt METAR LFSB 051700Z AUTO 32001KT CAVOK 20/14 Q1022 NOSIG
18:30
V
23 °C 10 km+ - Var Var 3 kt METAR LFSB 051630Z AUTO VRB03KT CAVOK 23/14 Q1022 NOSIG
18:00
V
24 °C 10 km+ - 150° 150° 3 kt METAR LFSB 051600Z AUTO 15003KT CAVOK 24/13 Q1021 NOSIG
17:30
V
25 °C 10 km+ - Var Var 3 kt METAR LFSB 051530Z AUTO VRB03KT CAVOK 25/13 Q1021 NOSIG
17:00
V
25 °C 10 km+ - 270° 270° 4 kt METAR LFSB 051500Z AUTO 27004KT 240V300 CAVOK 25/13 Q1021 NOSIG
Ältere Daten

Wir und Dritte verfolgen dein Internetverhalten auf unserer Website mit Cookies. Wenn du fortfährst, gehen wir davon aus, dass du mit unserer Cookie-Richtlinie einverstanden bist. Mehr erfahren